createdAt,value
2023-04-09T00:02:21.981Z,10.07
2023-04-09T00:04:52.413Z,10.63
2023-04-09T00:07:23.665Z,9.80
2023-04-09T00:09:55.258Z,10.73
2023-04-09T00:12:26.610Z,10.90
2023-04-09T00:14:57.927Z,10.03
2023-04-09T00:17:29.357Z,10.90
2023-04-09T00:19:59.811Z,10.10
2023-04-09T00:22:27.462Z,10.40
2023-04-09T00:24:56.600Z,12.33
2023-04-09T00:27:29.504Z,11.07
2023-04-09T00:30:00.341Z,11.43
2023-04-09T00:32:28.338Z,9.87
2023-04-09T00:34:59.027Z,9.87
2023-04-09T00:37:30.597Z,10.70
2023-04-09T00:40:00.358Z,10.63
2023-04-09T00:42:32.566Z,10.47
2023-04-09T00:44:59.870Z,11.00
2023-04-09T00:47:29.422Z,11.47
2023-04-09T00:50:03.156Z,10.50
2023-04-09T00:52:35.088Z,10.73
2023-04-09T00:55:09.428Z,10.17
2023-04-09T00:57:42.642Z,10.10
2023-04-09T01:00:13.343Z,10.23
2023-04-09T01:02:47.953Z,9.97
2023-04-09T01:05:15.907Z,10.43
2023-04-09T01:08:15.746Z,10.07
2023-04-09T01:11:19.085Z,10.30
2023-04-09T01:14:15.410Z,10.57
2023-04-09T01:19:55.490Z,10.27
2023-04-09T01:22:52.918Z,10.57
2023-04-09T01:26:19.187Z,10.47
2023-04-09T01:31:43.000Z,9.87
2023-04-09T01:34:15.337Z,10.10
2023-04-09T01:37:05.557Z,10.43
2023-04-09T01:39:57.714Z,10.00
2023-04-09T01:42:29.512Z,10.10
2023-04-09T01:45:00.989Z,11.07
2023-04-09T01:47:32.397Z,10.50
2023-04-09T01:50:04.205Z,10.90
2023-04-09T01:55:18.004Z,10.63
2023-04-09T01:57:46.626Z,10.77
2023-04-09T02:00:21.610Z,10.53
2023-04-09T02:03:33.398Z,11.10
2023-04-09T02:06:18.842Z,10.87
2023-04-09T02:08:55.478Z,11.67
2023-04-09T02:11:30.068Z,12.03
2023-04-09T02:14:00.830Z,12.20
2023-04-09T02:16:38.634Z,10.63
2023-04-09T02:19:10.214Z,11.00
2023-04-09T02:21:40.224Z,10.70
2023-04-09T02:24:10.224Z,11.50
2023-04-09T02:26:40.134Z,10.50
2023-04-09T02:29:10.940Z,11.07
2023-04-09T02:31:42.504Z,11.03
2023-04-09T02:34:16.321Z,11.03
2023-04-09T02:36:48.867Z,11.47
2023-04-09T02:39:16.203Z,11.73
2023-04-09T02:41:46.843Z,12.10
2023-04-09T02:44:16.757Z,11.60
2023-04-09T02:46:49.670Z,11.13
2023-04-09T02:49:19.632Z,11.73
2023-04-09T02:51:47.819Z,11.53
2023-04-09T02:54:19.074Z,12.83
2023-04-09T02:56:50.431Z,11.60
2023-04-09T02:59:19.190Z,11.43
2023-04-09T03:01:52.414Z,11.53
2023-04-09T03:04:24.409Z,11.40
2023-04-09T03:06:52.420Z,11.83
2023-04-09T03:09:23.290Z,11.63
2023-04-09T03:11:53.477Z,11.60
2023-04-09T03:14:24.599Z,10.40
2023-04-09T03:16:57.654Z,11.97
2023-04-09T03:19:27.694Z,11.77
2023-04-09T03:21:59.738Z,10.50
2023-04-09T03:24:28.174Z,13.00
2023-04-09T03:27:01.165Z,11.93
2023-04-09T03:29:33.688Z,11.47
2023-04-09T03:32:01.806Z,12.37
2023-04-09T03:34:30.926Z,11.60
2023-04-09T03:37:02.633Z,12.10
2023-04-09T03:39:33.981Z,11.70
2023-04-09T03:42:04.851Z,11.10
2023-04-09T03:44:33.242Z,10.77
2023-04-09T03:47:06.643Z,12.57
2023-04-09T03:49:40.894Z,11.70
2023-04-09T03:52:11.904Z,11.03
2023-04-09T03:54:42.303Z,11.40
2023-04-09T03:57:13.890Z,11.60
2023-04-09T03:59:43.195Z,11.70
2023-04-09T04:02:14.462Z,11.07
2023-04-09T04:04:46.862Z,11.60
2023-04-09T04:10:11.848Z,11.53
2023-04-09T04:12:42.177Z,11.47
2023-04-09T04:15:11.644Z,10.97
2023-04-09T04:17:46.554Z,10.23
2023-04-09T04:20:22.618Z,11.23
2023-04-09T04:22:53.931Z,11.27
2023-04-09T04:25:30.156Z,11.37
2023-04-09T04:28:01.283Z,10.97
2023-04-09T04:30:30.773Z,11.23
2023-04-09T04:33:01.153Z,10.50
2023-04-09T04:35:33.107Z,12.03
2023-04-09T04:38:03.933Z,11.07
2023-04-09T04:40:33.940Z,10.57
2023-04-09T04:43:03.850Z,10.83
2023-04-09T04:45:33.203Z,11.47
2023-04-09T04:48:02.634Z,11.33
2023-04-09T04:50:29.354Z,11.23
2023-04-09T04:52:58.136Z,11.60
2023-04-09T04:55:28.805Z,10.33
2023-04-09T04:58:00.109Z,11.20
2023-04-09T05:00:28.674Z,10.90
2023-04-09T05:03:00.247Z,11.00
2023-04-09T05:05:30.415Z,10.77
2023-04-09T05:08:00.577Z,11.00
2023-04-09T05:10:28.399Z,11.63
2023-04-09T05:12:56.422Z,12.03
2023-04-09T05:18:10.779Z,10.43
2023-04-09T05:20:42.622Z,11.37
2023-04-09T05:23:14.770Z,11.53
2023-04-09T05:25:41.479Z,11.63
2023-04-09T05:28:16.839Z,10.77
2023-04-09T05:30:50.488Z,12.00
2023-04-09T05:33:19.711Z,11.20
2023-04-09T05:35:50.273Z,11.00
2023-04-09T05:38:20.442Z,11.97
2023-04-09T05:40:51.662Z,10.80
2023-04-09T05:43:21.666Z,11.30
2023-04-09T05:45:53.376Z,11.73
2023-04-09T05:48:24.520Z,11.23
2023-04-09T05:50:55.971Z,11.43
2023-04-09T05:53:35.001Z,11.93
2023-04-09T05:56:01.961Z,11.63
2023-04-09T05:58:32.999Z,12.40
2023-04-09T06:01:03.578Z,11.30
2023-04-09T06:03:34.043Z,12.47
2023-04-09T06:06:03.474Z,11.70
2023-04-09T06:08:33.620Z,11.20
2023-04-09T06:11:06.445Z,11.23
2023-04-09T06:13:36.927Z,12.53
2023-04-09T06:16:12.484Z,11.70
2023-04-09T06:18:44.830Z,11.87
2023-04-09T06:21:15.987Z,13.83
2023-04-09T06:23:54.281Z,11.60
2023-04-09T06:26:29.581Z,12.60
2023-04-09T06:29:00.133Z,10.90
2023-04-09T06:31:41.189Z,12.53
2023-04-09T06:34:20.407Z,11.77
2023-04-09T06:36:51.118Z,13.03
2023-04-09T06:39:22.959Z,12.13
2023-04-09T06:41:55.958Z,13.90
2023-04-09T06:44:31.778Z,11.20
2023-04-09T06:47:00.206Z,14.40
2023-04-09T06:49:30.506Z,12.50
2023-04-09T06:52:00.312Z,12.57
2023-04-09T06:54:31.057Z,13.90
2023-04-09T06:57:04.359Z,13.10
2023-04-09T06:59:38.169Z,12.67
2023-04-09T07:02:10.185Z,12.50
2023-04-09T07:04:40.794Z,14.23
2023-04-09T07:07:10.842Z,14.87
2023-04-09T07:09:42.336Z,13.03
2023-04-09T07:12:13.700Z,13.63
2023-04-09T07:14:44.496Z,14.67
2023-04-09T07:17:16.239Z,13.10
2023-04-09T07:19:48.343Z,12.60
2023-04-09T07:22:16.712Z,13.90
2023-04-09T07:24:49.904Z,14.87
2023-04-09T07:27:20.377Z,14.27
2023-04-09T07:29:48.667Z,13.00
2023-04-09T07:32:19.752Z,13.03
2023-04-09T07:34:53.240Z,14.63
2023-04-09T07:37:27.016Z,13.57
2023-04-09T07:39:56.958Z,12.40
2023-04-09T07:42:25.708Z,12.40
2023-04-09T07:44:57.689Z,13.27
2023-04-09T07:50:14.436Z,14.07
2023-04-09T07:52:46.712Z,13.43
2023-04-09T07:55:18.719Z,14.17
2023-04-09T07:57:49.767Z,13.90
2023-04-09T08:00:21.597Z,20.33
2023-04-09T08:02:49.932Z,13.67
2023-04-09T08:05:20.301Z,13.20
2023-04-09T08:07:53.138Z,12.73
2023-04-09T08:10:21.967Z,20.43
2023-04-09T08:12:55.495Z,18.57
2023-04-09T08:15:25.913Z,50.03
2023-04-09T08:17:56.773Z,58.60
2023-04-09T08:20:27.592Z,47.67
2023-04-09T08:25:43.743Z,35.80
2023-04-09T08:28:16.480Z,36.27
2023-04-09T08:30:47.015Z,35.80
2023-04-09T08:33:14.915Z,35.97
2023-04-09T08:35:46.602Z,33.20
2023-04-09T08:38:18.543Z,30.90
2023-04-09T08:40:46.872Z,42.50
2023-04-09T08:43:21.285Z,32.80
2023-04-09T08:45:54.477Z,28.97
2023-04-09T08:48:26.458Z,29.73
2023-04-09T08:50:59.806Z,24.63
2023-04-09T08:53:32.015Z,28.70
2023-04-09T08:56:03.893Z,26.27
2023-04-09T09:01:29.034Z,24.80
2023-04-09T09:04:11.774Z,21.93
2023-04-09T09:06:46.058Z,26.00
2023-04-09T09:09:21.437Z,19.63
2023-04-09T09:11:56.166Z,21.10
2023-04-09T09:14:27.943Z,21.27
2023-04-09T09:17:06.499Z,18.73
2023-04-09T09:19:36.585Z,17.93
2023-04-09T09:22:08.365Z,18.70
2023-04-09T09:24:55.688Z,19.53
2023-04-09T09:27:41.961Z,15.70
2023-04-09T09:30:22.739Z,16.90
2023-04-09T09:33:15.650Z,17.17
2023-04-09T09:35:59.953Z,16.33
2023-04-09T09:38:31.345Z,14.67
2023-04-09T09:41:18.426Z,14.73
2023-04-09T09:43:49.081Z,15.50
2023-04-09T09:46:19.930Z,12.53
2023-04-09T09:48:52.376Z,13.27
2023-04-09T09:51:26.889Z,11.67
2023-04-09T09:54:16.747Z,13.67
2023-04-09T09:56:49.453Z,12.83
2023-04-09T09:59:29.017Z,13.07
2023-04-09T10:02:22.155Z,11.73
2023-04-09T10:05:00.782Z,12.40
2023-04-09T10:07:52.253Z,11.60
2023-04-09T10:10:25.550Z,13.67
2023-04-09T10:12:57.004Z,12.20
2023-04-09T10:15:27.048Z,10.87
2023-04-09T10:17:56.145Z,11.37
2023-04-09T10:20:34.934Z,10.87
2023-04-09T10:23:12.087Z,8.20
2023-04-09T10:25:46.276Z,11.30
2023-04-09T10:28:21.188Z,9.83
2023-04-09T10:30:51.648Z,8.73
2023-04-09T10:33:27.595Z,10.43
2023-04-09T10:36:14.688Z,11.23
2023-04-09T10:38:49.838Z,9.43
2023-04-09T10:44:29.368Z,9.60
2023-04-09T10:47:01.179Z,9.03
2023-04-09T10:49:40.796Z,8.20
2023-04-09T10:52:15.456Z,7.27
2023-04-09T10:55:02.326Z,7.33
2023-04-09T10:57:35.527Z,8.10
2023-04-09T11:03:24.027Z,7.37
2023-04-09T11:06:12.898Z,8.83
2023-04-09T11:08:45.127Z,6.47
2023-04-09T11:11:16.405Z,7.80
2023-04-09T11:13:47.154Z,7.57
2023-04-09T11:16:24.065Z,8.90
2023-04-09T11:19:02.000Z,6.87
2023-04-09T11:24:23.940Z,5.87
2023-04-09T11:26:52.324Z,8.10
2023-04-09T11:29:28.042Z,7.67
2023-04-09T11:31:58.276Z,7.60
2023-04-09T11:34:32.354Z,6.33
2023-04-09T11:37:04.803Z,6.60
2023-04-09T11:39:38.702Z,6.33
2023-04-09T11:42:09.340Z,6.43
2023-04-09T11:44:37.617Z,6.77
2023-04-09T11:47:08.109Z,6.10
2023-04-09T11:49:42.442Z,5.67
2023-04-09T11:52:10.830Z,6.17
2023-04-09T11:54:39.693Z,5.70
2023-04-09T11:57:16.663Z,6.13
2023-04-09T11:59:48.805Z,5.70
2023-04-09T12:02:21.965Z,6.40
2023-04-09T12:05:00.016Z,7.67
2023-04-09T12:07:44.216Z,4.83
2023-04-09T12:10:23.662Z,5.20
2023-04-09T12:12:55.113Z,5.50
2023-04-09T12:15:26.805Z,6.07
2023-04-09T12:18:01.278Z,4.47
2023-04-09T12:20:40.987Z,4.93
2023-04-09T12:23:12.393Z,4.97
2023-04-09T12:25:46.996Z,4.73
2023-04-09T12:28:19.142Z,5.23
2023-04-09T12:30:51.004Z,5.00
2023-04-09T12:33:22.945Z,5.20
2023-04-09T12:35:52.183Z,4.90
2023-04-09T12:38:24.906Z,5.70
2023-04-09T12:40:56.086Z,4.80
2023-04-09T12:43:26.773Z,4.13
2023-04-09T12:45:58.657Z,4.73
2023-04-09T12:48:27.866Z,4.80
2023-04-09T12:50:57.477Z,5.57
2023-04-09T12:53:26.873Z,4.10
2023-04-09T12:55:56.854Z,4.67
2023-04-09T12:58:25.648Z,5.10
2023-04-09T13:00:55.637Z,5.13
2023-04-09T13:03:27.531Z,5.23
2023-04-09T13:06:01.096Z,5.23
2023-04-09T13:08:30.965Z,4.40
2023-04-09T13:11:03.184Z,4.63
2023-04-09T13:13:35.356Z,4.10
2023-04-09T13:16:06.866Z,4.60
2023-04-09T13:18:37.633Z,4.80
2023-04-09T13:21:07.855Z,5.13
2023-04-09T13:23:38.023Z,4.57
2023-04-09T13:26:06.791Z,5.07
2023-04-09T13:28:38.826Z,4.30
2023-04-09T13:31:10.404Z,3.90
2023-04-09T13:33:43.586Z,3.50
2023-04-09T13:36:12.890Z,4.53
2023-04-09T13:38:45.802Z,4.20
2023-04-09T13:41:18.383Z,4.10
2023-04-09T13:43:51.574Z,4.20
2023-04-09T13:46:24.137Z,4.70
2023-04-09T13:48:57.426Z,4.10
2023-04-09T13:51:33.274Z,3.40
2023-04-09T13:54:05.897Z,3.90
2023-04-09T13:56:38.252Z,3.97
2023-04-09T13:59:10.150Z,3.90
2023-04-09T14:01:41.652Z,3.27
2023-04-09T14:04:15.637Z,3.73
2023-04-09T14:06:44.096Z,3.80
2023-04-09T14:09:17.863Z,4.33
2023-04-09T14:11:47.368Z,3.57
2023-04-09T14:14:17.999Z,3.83
2023-04-09T14:16:47.073Z,3.87
2023-04-09T14:19:17.517Z,4.10
2023-04-09T14:21:52.251Z,3.83
2023-04-09T14:24:30.620Z,3.80
2023-04-09T14:27:01.733Z,4.80
2023-04-09T14:29:34.684Z,3.70
2023-04-09T14:32:05.813Z,3.33
2023-04-09T14:34:36.643Z,3.50
2023-04-09T14:37:09.647Z,3.20
2023-04-09T14:39:39.510Z,3.43
2023-04-09T14:42:11.169Z,3.77
2023-04-09T14:44:41.461Z,3.10
2023-04-09T14:47:11.136Z,3.20
2023-04-09T14:49:39.285Z,3.43
2023-04-09T14:52:09.232Z,3.37
2023-04-09T14:54:40.869Z,3.40
2023-04-09T14:57:12.368Z,3.30
2023-04-09T14:59:44.210Z,2.97
2023-04-09T15:02:17.162Z,3.27
2023-04-09T15:04:47.373Z,3.30
2023-04-09T15:10:05.544Z,3.10
2023-04-09T15:12:36.983Z,2.97
2023-04-09T15:15:12.718Z,3.07
2023-04-09T15:17:39.637Z,2.70
2023-04-09T15:20:12.116Z,3.20
2023-04-09T15:22:47.928Z,3.07
2023-04-09T15:25:16.951Z,3.00
2023-04-09T15:30:44.465Z,3.10
2023-04-09T15:33:15.183Z,2.70
2023-04-09T15:35:45.363Z,2.90
2023-04-09T15:38:14.856Z,3.20
2023-04-09T15:40:42.841Z,2.70
2023-04-09T15:43:14.054Z,3.53
2023-04-09T15:48:34.671Z,2.87
2023-04-09T15:51:10.616Z,2.77
2023-04-09T15:53:41.638Z,2.80
2023-04-09T15:56:13.963Z,2.60
2023-04-09T15:58:45.329Z,3.57
2023-04-09T16:01:17.616Z,2.97
2023-04-09T16:03:57.330Z,2.70
2023-04-09T16:06:27.575Z,3.17
2023-04-09T16:08:58.955Z,2.57
2023-04-09T16:11:30.589Z,3.10
2023-04-09T16:13:59.936Z,2.87
2023-04-09T16:16:28.118Z,16.80
2023-04-09T16:18:58.042Z,31.50
2023-04-09T16:21:30.878Z,45.07
2023-04-09T16:24:14.124Z,50.00
2023-04-09T16:26:43.288Z,52.67
2023-04-09T16:29:14.471Z,47.87
2023-04-09T16:31:48.997Z,62.10
2023-04-09T16:34:22.254Z,56.33
2023-04-09T16:36:54.528Z,52.77
2023-04-09T16:39:25.961Z,42.90
2023-04-09T16:41:57.344Z,33.30
2023-04-09T16:44:28.173Z,33.40
2023-04-09T16:47:01.983Z,31.33
2023-04-09T16:49:32.163Z,42.57
2023-04-09T16:52:01.732Z,27.87
2023-04-09T16:54:33.531Z,18.83
2023-04-09T16:57:05.008Z,19.83
2023-04-09T16:59:36.258Z,26.90
2023-04-09T17:02:06.633Z,26.00
2023-04-09T17:04:39.737Z,17.93
2023-04-09T17:07:10.626Z,23.70
2023-04-09T17:09:42.089Z,13.73
2023-04-09T17:12:13.779Z,18.87
2023-04-09T17:14:47.294Z,20.47
2023-04-09T17:17:32.163Z,15.63
2023-04-09T17:20:04.430Z,13.43
2023-04-09T17:22:31.804Z,16.93
2023-04-09T17:25:07.154Z,12.63
2023-04-09T17:27:37.228Z,12.80
2023-04-09T17:30:05.950Z,11.17
2023-04-09T17:32:37.622Z,8.67
2023-04-09T17:35:10.857Z,10.37
2023-04-09T17:37:42.024Z,13.07
2023-04-09T17:40:13.445Z,7.13
2023-04-09T17:42:44.565Z,7.73
2023-04-09T17:45:12.054Z,6.53
2023-04-09T17:47:42.943Z,8.10
2023-04-09T17:50:14.598Z,10.03
2023-04-09T17:52:43.621Z,11.23
2023-04-09T17:55:15.734Z,10.60
2023-04-09T18:03:20.597Z,12.03
2023-04-09T18:05:52.265Z,13.77
2023-04-09T18:08:19.878Z,10.63
2023-04-09T18:11:11.845Z,11.47
2023-04-09T18:13:43.610Z,8.13
2023-04-09T18:16:16.721Z,15.33
2023-04-09T18:18:48.923Z,11.43
2023-04-09T18:21:16.549Z,11.67
2023-04-09T18:23:48.764Z,11.60
2023-04-09T18:26:18.701Z,15.13
2023-04-09T18:28:50.614Z,19.47
2023-04-09T18:31:23.870Z,16.90
2023-04-09T18:33:52.399Z,26.60
2023-04-09T18:36:22.610Z,25.97
2023-04-09T18:38:55.080Z,18.87
2023-04-09T18:41:25.584Z,20.40
2023-04-09T18:43:57.785Z,28.87
2023-04-09T18:49:10.479Z,33.43
2023-04-09T18:51:42.401Z,29.53
2023-04-09T18:54:12.750Z,41.47
2023-04-09T18:56:45.375Z,49.40
2023-04-09T18:59:15.319Z,39.67
2023-04-09T19:01:43.760Z,38.23
2023-04-09T19:04:12.141Z,35.33
2023-04-09T19:06:43.647Z,34.37
2023-04-09T19:09:13.933Z,34.77
2023-04-09T19:11:44.813Z,34.03
2023-04-09T19:14:12.711Z,39.37
2023-04-09T19:16:41.360Z,32.10
2023-04-09T19:19:14.212Z,33.47
2023-04-09T19:21:45.459Z,30.90
2023-04-09T19:29:43.325Z,33.47
2023-04-09T19:32:26.336Z,27.90
2023-04-09T19:34:56.743Z,25.53
2023-04-09T19:37:41.604Z,25.37
2023-04-09T19:40:19.631Z,27.73
2023-04-09T19:42:48.906Z,20.77
2023-04-09T19:45:20.768Z,46.47
2023-04-09T19:47:55.884Z,94.47
2023-04-09T19:50:26.238Z,76.60
2023-04-09T19:52:58.988Z,67.20
2023-04-09T19:55:30.514Z,54.73
2023-04-09T19:58:02.052Z,60.47
2023-04-09T20:00:31.496Z,53.33
2023-04-09T20:03:04.173Z,57.73
2023-04-09T20:05:37.462Z,58.93
2023-04-09T20:08:13.549Z,60.13
2023-04-09T20:10:48.731Z,67.73
2023-04-09T20:13:18.918Z,89.03
2023-04-09T20:15:50.059Z,76.23
2023-04-09T20:18:22.711Z,75.07
2023-04-09T20:20:52.889Z,70.80
2023-04-09T20:23:25.833Z,65.57
2023-04-09T20:26:01.071Z,59.53
2023-04-09T20:28:32.594Z,58.73
2023-04-09T20:31:08.078Z,56.73
2023-04-09T20:33:39.328Z,56.67
2023-04-09T20:36:19.055Z,46.77
2023-04-09T20:38:52.272Z,47.00
2023-04-09T20:41:22.309Z,42.13
2023-04-09T20:43:54.203Z,39.17
2023-04-09T20:46:25.521Z,39.20
2023-04-09T20:48:59.219Z,36.13
2023-04-09T20:51:31.338Z,35.07
2023-04-09T20:54:04.868Z,35.37
2023-04-09T20:56:34.599Z,32.77
2023-04-09T20:59:06.579Z,30.50
2023-04-09T21:01:38.238Z,35.13
2023-04-09T21:04:11.417Z,29.57
2023-04-09T21:06:41.464Z,26.73
2023-04-09T21:09:11.518Z,29.43
2023-04-09T21:11:41.124Z,24.57
2023-04-09T21:14:13.645Z,28.27
2023-04-09T21:16:42.821Z,24.87
2023-04-09T21:19:13.606Z,22.63
2023-04-09T21:21:42.794Z,22.33
2023-04-09T21:24:13.669Z,19.07
2023-04-09T21:29:18.617Z,22.07
2023-04-09T21:31:53.889Z,18.90
2023-04-09T21:34:25.592Z,23.77
2023-04-09T21:36:58.826Z,22.13
2023-04-09T21:39:28.794Z,18.43
2023-04-09T21:41:59.368Z,16.90
2023-04-09T21:44:30.811Z,19.40
2023-04-09T21:47:01.702Z,17.10
2023-04-09T21:49:30.319Z,16.87
2023-04-09T21:52:02.636Z,15.33
2023-04-09T21:54:33.929Z,15.03
2023-04-09T21:57:02.762Z,14.40
2023-04-09T21:59:31.847Z,13.33
2023-04-09T22:02:01.451Z,11.20
2023-04-09T22:04:29.867Z,11.67
2023-04-09T22:06:59.073Z,11.40
2023-04-09T22:09:29.630Z,13.53
2023-04-09T22:11:58.473Z,9.13
2023-04-09T22:14:32.727Z,9.37
2023-04-09T22:17:04.141Z,10.80
2023-04-09T22:19:36.631Z,8.93
2023-04-09T22:22:07.592Z,8.77
2023-04-09T22:24:36.480Z,7.97
2023-04-09T22:27:09.021Z,7.37
2023-04-09T22:29:39.666Z,6.43
2023-04-09T22:32:17.468Z,6.97
2023-04-09T22:34:47.871Z,7.00
2023-04-09T22:37:19.414Z,6.63
2023-04-09T22:39:51.512Z,7.60
2023-04-09T22:42:23.406Z,6.80
2023-04-09T22:45:02.252Z,5.47
2023-04-09T22:47:33.813Z,7.63
2023-04-09T22:50:03.686Z,7.23
2023-04-09T22:52:30.713Z,5.40
2023-04-09T22:55:04.927Z,6.93
2023-04-09T22:57:36.666Z,5.03
2023-04-09T23:00:05.075Z,4.93
2023-04-09T23:02:35.204Z,7.30
2023-04-09T23:05:06.342Z,5.90
2023-04-09T23:07:36.332Z,5.23
2023-04-09T23:10:05.136Z,5.33
2023-04-09T23:12:34.144Z,5.40
2023-04-09T23:15:04.800Z,6.97
2023-04-09T23:17:37.589Z,4.53
2023-04-09T23:20:09.054Z,5.53
2023-04-09T23:22:38.529Z,4.30
2023-04-09T23:25:13.189Z,4.90
2023-04-09T23:27:42.328Z,5.63
2023-04-09T23:30:10.883Z,4.13
2023-04-09T23:32:42.319Z,4.17
2023-04-09T23:35:11.917Z,4.70
2023-04-09T23:37:41.498Z,5.10
2023-04-09T23:40:17.331Z,4.53
2023-04-09T23:42:52.533Z,5.70
2023-04-09T23:45:33.749Z,5.37
2023-04-09T23:48:03.948Z,4.07
2023-04-09T23:50:35.859Z,4.63
2023-04-09T23:53:07.374Z,4.03
2023-04-09T23:55:41.117Z,4.00
2023-04-09T23:58:16.164Z,4.83
